WINNIPESAUKEE R @ TILTON: From 08/05/2019 17:00 to 08/19/2019 23:00

Date STAGE [FT] FLOW [CFS] AIR TEMPERATURE [DEGF]
08/19/2019 19:00 2.59 291.0 81.9
08/19/2019 18:00 2.59 291.0 82.9
08/19/2019 17:00 2.58 288.0 83.9
08/19/2019 16:00 2.58 288.0 79.2
08/19/2019 15:00 2.58 288.0 85.3
08/19/2019 14:00 2.57 285.0 83.9
08/19/2019 13:00 2.57 285.0 81.8
08/19/2019 12:00 2.57 285.0 79.0
08/19/2019 11:00 2.57 285.0 77.3
08/19/2019 10:00 2.57 285.0 72.0
08/19/2019 09:00 2.57 285.0 69.5
08/19/2019 08:00 2.57 285.0 68.7
08/19/2019 07:00 2.56 282.0 68.5
08/19/2019 06:00 2.56 282.0 68.9
08/19/2019 05:00 2.57 285.0 69.3
08/19/2019 04:00 2.57 285.0 69.8
08/19/2019 03:00 2.57 285.0 69.9
08/19/2019 02:00 2.58 288.0 70.5
08/19/2019 01:00 2.56 282.0 71.9
08/19/2019 00:00 2.54 275.0 72.1
08/18/2019 23:00 2.53 272.0 74.0
08/18/2019 22:00 2.53 272.0 74.7
08/18/2019 21:00 2.53 272.0 74.4
08/18/2019 20:00 2.53 272.0 78.4
08/18/2019 19:00 2.54 275.0 81.8
08/18/2019 18:00 2.54 275.0 83.0
08/18/2019 17:00 2.54 275.0 82.8
08/18/2019 16:00 2.54 275.0 82.3
08/18/2019 15:00 2.54 275.0 81.6
08/18/2019 14:00 2.54 275.0 80.4
08/18/2019 13:00 2.54 275.0 79.8
08/18/2019 12:00 2.54 275.0 74.8
08/18/2019 11:00 2.54 275.0 72.3
08/18/2019 10:00 2.54 275.0 68.0
08/18/2019 09:00 2.54 275.0 66.1
08/18/2019 08:00 2.54 275.0 64.9
08/18/2019 07:00 2.55 279.0 65.0
08/18/2019 06:00 2.55 279.0 65.6
08/18/2019 05:00 2.55 279.0 65.9
08/18/2019 04:00 2.55 279.0 66.3
08/18/2019 03:00 2.56 282.0 66.1
08/18/2019 02:00 2.56 282.0 66.0
08/18/2019 01:00 2.55 279.0 65.8
08/18/2019 00:00 2.55 279.0 65.9
08/17/2019 23:00 2.55 279.0 66.3
08/17/2019 22:00 2.56 282.0 66.4
08/17/2019 21:00 2.56 282.0 70.8
08/17/2019 20:00 2.57 285.0 72.1
08/17/2019 19:00 2.52 269.0 73.5
08/17/2019 18:00 2.52 269.0 75.0
08/17/2019 17:00 2.52 269.0 74.9
08/17/2019 16:00 2.52 269.0 75.5
08/17/2019 15:00 2.52 269.0 74.7
08/17/2019 14:00 2.52 269.0 73.4
08/17/2019 13:00 2.52 269.0 70.7
08/17/2019 12:00 2.52 269.0 68.6
08/17/2019 11:00 2.52 269.0 67.1
08/17/2019 10:00 2.52 269.0 66.8
08/17/2019 09:00 2.52 269.0 66.0
08/17/2019 08:00 2.53 272.0 65.4
08/17/2019 07:00 2.52 269.0 64.8
08/17/2019 06:00 2.52 269.0 65.3
08/17/2019 05:00 2.53 272.0 65.5
08/17/2019 04:00 2.53 272.0 65.4
08/17/2019 03:00 2.53 272.0 65.7
08/17/2019 02:00 2.53 272.0 65.9
08/17/2019 01:00 2.52 269.0 66.1
08/17/2019 00:00 2.53 272.0 66.4
08/16/2019 23:00 2.53 272.0 67.1
08/16/2019 22:00 2.53 272.0 69.0
08/16/2019 21:00 2.53 272.0 71.5
08/16/2019 20:00 2.53 272.0 73.9
08/16/2019 19:00 2.54 275.0 77.6
08/16/2019 18:00 2.54 275.0 78.4
08/16/2019 17:00 2.54 275.0 78.3
08/16/2019 16:00 2.54 275.0 77.2
08/16/2019 15:00 2.54 275.0 75.4
08/16/2019 14:00 2.54 275.0 74.3
08/16/2019 13:00 2.54 275.0 71.0
08/16/2019 12:00 2.53 272.0 69.5
08/16/2019 11:00 2.53 272.0 67.0
08/16/2019 10:00 2.54 275.0 65.9
08/16/2019 09:00 2.54 275.0 65.0
08/16/2019 08:00 2.54 275.0 64.2
08/16/2019 07:00 2.54 275.0 64.0
08/16/2019 06:00 2.54 275.0 64.6
08/16/2019 05:00 2.54 275.0 64.6
08/16/2019 04:00 2.54 275.0 64.8
08/16/2019 03:00 2.54 275.0 64.8
08/16/2019 02:00 2.54 275.0 64.6
08/16/2019 01:00 2.54 275.0 65.2
08/16/2019 00:00 2.54 275.0 66.9
08/15/2019 23:00 2.54 275.0 69.0
08/15/2019 22:00 2.54 275.0 69.8
08/15/2019 21:00 2.54 275.0 71.0
08/15/2019 20:00 2.54 275.0 73.3
08/15/2019 19:00 2.54 275.0 76.8
08/15/2019 18:00 2.54 275.0 77.3
08/15/2019 17:00 2.54 275.0 77.2
08/15/2019 16:00 2.54 275.0 76.3
08/15/2019 15:00 2.54 275.0 74.7
08/15/2019 14:00 2.54 275.0 73.0
08/15/2019 13:00 2.54 275.0 72.4
08/15/2019 12:00 2.53 272.0 72.0
08/15/2019 11:00 2.54 275.0 70.3
08/15/2019 10:00 2.53 272.0 70.6
08/15/2019 09:00 2.53 272.0 62.8
08/15/2019 08:00 2.53 272.0 58.9
08/15/2019 07:00 2.53 272.0 57.6
08/15/2019 06:00 2.53 272.0 58.9
08/15/2019 05:00 2.53 272.0 58.1
08/15/2019 04:00 2.53 272.0 58.7
08/15/2019 03:00 2.53 272.0 59.6
08/15/2019 02:00 2.53 272.0 60.8
08/15/2019 01:00 2.53 272.0 62.4
08/15/2019 00:00 2.53 272.0 63.1
08/14/2019 23:00 2.53 272.0 64.7
08/14/2019 22:00 2.53 272.0 66.9
08/14/2019 21:00 2.53 272.0 70.3
08/14/2019 20:00 2.53 272.0 74.3
08/14/2019 19:00 2.53 272.0 77.6
08/14/2019 18:00 2.53 272.0 77.4
08/14/2019 17:00 2.52 269.0 78.2
08/14/2019 16:00 2.53 272.0 78.7
08/14/2019 15:00 2.53 272.0 76.5
08/14/2019 14:00 2.52 269.0 75.2
08/14/2019 13:00 2.53 272.0 74.8
08/14/2019 12:00 2.52 269.0 74.1
08/14/2019 11:00 2.53 272.0 73.0
08/14/2019 10:00 2.52 269.0 70.6
08/14/2019 09:00 2.52 269.0 66.2
08/14/2019 08:00 2.52 269.0 60.9
08/14/2019 07:00 2.52 269.0 60.2
08/14/2019 06:00 2.52 269.0 61.3
08/14/2019 05:00 2.52 269.0 61.8
08/14/2019 04:00 2.52 269.0 62.3
08/14/2019 03:00 2.51 266.0 62.6
08/14/2019 02:00 2.51 266.0 63.5
08/14/2019 01:00 2.52 269.0 64.6
08/14/2019 00:00 2.52 269.0 65.5
08/13/2019 23:00 2.52 269.0 67.2
08/13/2019 22:00 2.51 266.0 69.7
08/13/2019 21:00 2.51 266.0 70.5
08/13/2019 20:00 2.51 266.0 71.3
08/13/2019 19:00 2.50 263.0 73.0
08/13/2019 18:00 2.50 263.0 76.4
08/13/2019 17:00 2.50 263.0 75.8
08/13/2019 16:00 2.50 263.0 73.3
08/13/2019 15:00 2.49 260.0 80.9
08/13/2019 14:00 2.48 257.0 78.4
08/13/2019 13:00 2.48 257.0 78.7
08/13/2019 12:00 2.49 260.0 78.7
08/13/2019 11:00 2.49 260.0 78.9
08/13/2019 10:00 2.48 257.0 74.0
08/13/2019 09:00 2.49 260.0 68.4
08/13/2019 08:00 2.49 260.0 67.4
08/13/2019 07:00 2.49 260.0 67.1
08/13/2019 06:00 2.49 260.0 66.3
08/13/2019 05:00 2.48 257.0 66.6
08/13/2019 04:00 2.49 260.0 68.5
08/13/2019 03:00 2.49 260.0 68.1
08/13/2019 02:00 2.49 260.0 68.4
08/13/2019 01:00 2.49 260.0 67.9
08/13/2019 00:00 2.48 257.0 68.4
08/12/2019 23:00 2.49 260.0 69.0
08/12/2019 22:00 2.49 260.0 71.8
08/12/2019 21:00 2.49 260.0 75.2
08/12/2019 20:00 2.49 260.0 78.5
08/12/2019 19:00 2.48 257.0 81.4
08/12/2019 18:00 2.48 257.0 83.3
08/12/2019 17:00 2.48 257.0 82.7
08/12/2019 16:00 2.48 257.0 82.1
08/12/2019 15:00 2.48 257.0 83.0
08/12/2019 14:00 2.48 257.0 83.0
08/12/2019 13:00 2.49 260.0 82.6
08/12/2019 12:00 2.49 260.0 78.8
08/12/2019 11:00 2.48 257.0 75.4
08/12/2019 10:00 2.48 257.0 70.0
08/12/2019 09:00 2.48 257.0 62.4
08/12/2019 08:00 2.48 257.0 55.8
08/12/2019 07:00 2.48 257.0 53.5
08/12/2019 06:00 2.48 257.0 54.0
08/12/2019 05:00 2.48 257.0 54.1
08/12/2019 04:00 2.49 260.0 55.0
08/12/2019 03:00 2.48 257.0 56.2
08/12/2019 02:00 2.49 260.0 56.7
08/12/2019 01:00 2.48 257.0 58.2
08/12/2019 00:00 2.48 257.0 60.1
08/11/2019 23:00 2.49 260.0 60.8
08/11/2019 22:00 2.49 260.0 63.4
08/11/2019 21:00 2.49 260.0 70.0
08/11/2019 20:00 2.48 257.0 72.6
08/11/2019 19:00 2.48 257.0 74.1
08/11/2019 18:00 2.48 257.0 75.4
08/11/2019 17:00 2.48 257.0 77.2
08/11/2019 16:00 2.48 257.0 76.1
08/11/2019 15:00 2.49 260.0 75.3
08/11/2019 14:00 2.48 257.0 72.3
08/11/2019 13:00 2.49 260.0 71.4
08/11/2019 12:00 2.48 257.0 72.6
08/11/2019 11:00 2.49 260.0 70.9
08/11/2019 10:00 2.48 257.0 68.1
08/11/2019 09:00 2.49 260.0 65.2
08/11/2019 08:00 2.48 257.0 54.3
08/11/2019 07:00 2.49 260.0 50.6
08/11/2019 06:00 2.49 260.0 50.7
08/11/2019 05:00 2.49 260.0 52.8
08/11/2019 04:00 2.49 260.0 53.0
08/11/2019 03:00 2.48 257.0 53.6
08/11/2019 02:00 2.49 260.0 54.7
08/11/2019 01:00 2.49 260.0 55.8
08/11/2019 00:00 2.49 260.0 58.4
08/10/2019 23:00 2.49 260.0 60.4
08/10/2019 22:00 2.48 257.0 61.3
08/10/2019 21:00 2.49 260.0 64.7
08/10/2019 20:00 2.48 257.0 66.8
08/10/2019 19:00 2.48 257.0 71.3
08/10/2019 18:00 2.48 257.0 71.3
08/10/2019 17:00 2.48 257.0 71.7
08/10/2019 16:00 2.49 260.0 70.2
08/10/2019 15:00 2.48 257.0 70.2
08/10/2019 14:00 2.48 257.0 69.1
08/10/2019 13:00 2.49 260.0 73.4
08/10/2019 12:00 2.49 260.0 71.4
08/10/2019 11:00 2.49 260.0 70.2
08/10/2019 10:00 2.49 260.0 69.9
08/10/2019 09:00 2.49 260.0 63.4
08/10/2019 08:00 2.49 260.0 56.2
08/10/2019 07:00 2.50 263.0 54.6
08/10/2019 06:00 2.49 260.0 55.0
08/10/2019 05:00 2.49 260.0 55.9
08/10/2019 04:00 2.50 263.0 56.7
08/10/2019 03:00 2.50 263.0 57.5
08/10/2019 02:00 2.50 263.0 58.9
08/10/2019 01:00 2.49 260.0 60.6
08/10/2019 00:00 2.49 260.0 61.6
08/09/2019 23:00 2.50 263.0 62.1
08/09/2019 22:00 2.50 263.0 63.4
08/09/2019 21:00 2.50 263.0 66.6
08/09/2019 20:00 2.50 263.0 68.0
08/09/2019 19:00 2.49 260.0 78.1
08/09/2019 18:00 2.48 257.0 81.3
08/09/2019 17:00 2.49 260.0 81.5
08/09/2019 16:00 2.49 260.0 81.7
08/09/2019 15:00 2.49 260.0 81.0
08/09/2019 14:00 2.49 260.0 80.6
08/09/2019 13:00 2.50 263.0 79.6
08/09/2019 12:00 2.50 263.0 78.6
08/09/2019 11:00 2.50 263.0 76.2
08/09/2019 10:00 2.50 263.0 74.5
08/09/2019 09:00 2.49 260.0 70.1
08/09/2019 08:00 2.50 263.0 63.8
08/09/2019 07:00 2.50 263.0 61.9
08/09/2019 06:00 2.50 263.0 62.6
08/09/2019 05:00 2.50 263.0 63.4
08/09/2019 04:00 2.51 266.0 64.5
08/09/2019 03:00 2.50 263.0 66.6
08/09/2019 02:00 2.50 263.0 67.5
08/09/2019 01:00 2.50 263.0 67.8
08/09/2019 00:00 2.50 263.0 67.9
08/08/2019 23:00 2.51 266.0 70.4
08/08/2019 22:00 2.50 263.0 71.3
08/08/2019 21:00 2.50 263.0 74.1
08/08/2019 20:00 2.51 266.0 78.1
08/08/2019 19:00 2.50 263.0 81.9
08/08/2019 18:00 2.51 266.0 84.3
08/08/2019 17:00 2.51 266.0 83.3
08/08/2019 16:00 2.50 263.0 81.0
08/08/2019 15:00 2.50 263.0 77.9
08/08/2019 14:00 2.51 266.0 78.8
08/08/2019 13:00 2.51 266.0 77.1
08/08/2019 12:00 2.51 266.0 74.8
08/08/2019 11:00 2.51 266.0 72.3
08/08/2019 10:00 2.51 266.0 68.6
08/08/2019 09:00 2.52 269.0 67.9
08/08/2019 08:00 2.52 269.0 67.1
08/08/2019 07:00 2.52 269.0 66.8
08/08/2019 06:00 2.52 269.0 66.6
08/08/2019 05:00 2.52 269.0 66.4
08/08/2019 04:00 2.52 269.0 67.1
08/08/2019 03:00 2.52 269.0 67.0
08/08/2019 02:00 2.52 269.0 66.8
08/08/2019 01:00 2.52 269.0 67.0
08/08/2019 00:00 2.52 269.0 67.7
08/07/2019 23:00 2.52 269.0 69.5
08/07/2019 22:00 2.54 275.0 70.6
08/07/2019 21:00 2.52 269.0 70.3
08/07/2019 20:00 2.52 269.0 70.2
08/07/2019 19:00 2.60 295.0 69.4
08/07/2019 18:00 2.60 295.0 68.2
08/07/2019 17:00 2.41 236.0 81.3
08/07/2019 16:00 2.40 233.0 82.1
08/07/2019 15:00 2.40 233.0 80.7
08/07/2019 14:00 2.39 230.0 80.5
08/07/2019 13:00 2.39 230.0 77.8
08/07/2019 12:00 2.38 227.0 75.0
08/07/2019 11:00 2.39 230.0 74.1
08/07/2019 10:00 2.39 230.0 70.0
08/07/2019 09:00 2.40 233.0 67.7
08/07/2019 08:00 2.40 233.0 65.0
08/07/2019 07:00 2.40 233.0 64.6
08/07/2019 06:00 2.40 233.0 64.4
08/07/2019 05:00 2.40 233.0 64.7
08/07/2019 04:00 2.41 236.0 65.5
08/07/2019 03:00 2.40 233.0 66.5
08/07/2019 02:00 2.41 236.0 66.5
08/07/2019 01:00 2.40 233.0 67.4
08/07/2019 00:00 2.40 233.0 69.0
08/06/2019 23:00 2.41 236.0 70.3
08/06/2019 22:00 2.42 239.0 71.6
08/06/2019 21:00 2.41 236.0 75.0
08/06/2019 20:00 2.42 239.0 77.7
08/06/2019 19:00 2.44 245.0 79.1
08/06/2019 18:00 2.45 248.0 80.0
08/06/2019 17:00 2.46 251.0 81.5
08/06/2019 16:00 2.47 254.0 82.5
08/06/2019 15:00 2.48 257.0 81.7
08/06/2019 14:00 2.50 263.0 82.0
08/06/2019 13:00 2.51 266.0 80.0
08/06/2019 12:00 2.52 269.0 79.0
08/06/2019 11:00 2.53 272.0 72.6
08/06/2019 10:00 2.53 272.0 67.5
08/06/2019 09:00 2.53 272.0 62.2
08/06/2019 08:00 2.53 272.0 54.9
08/06/2019 07:00 2.53 272.0 51.9
08/06/2019 06:00 2.53 272.0 52.5
08/06/2019 05:00 2.53 272.0 53.0
08/06/2019 04:00 2.53 272.0 53.9
08/06/2019 03:00 2.53 272.0 55.3
08/06/2019 02:00 2.54 275.0 56.7
08/06/2019 01:00 2.53 272.0 57.9
08/06/2019 00:00 2.53 272.0 59.5
08/05/2019 23:00 2.53 272.0 62.3
08/05/2019 22:00 2.53 272.0 65.9
08/05/2019 21:00 2.54 275.0 71.8
08/05/2019 20:00 2.53 272.0 77.5
08/05/2019 19:00 -- -- --
08/05/2019 18:00 -- -- --
08/05/2019 17:00 -- -- --